Time;durP1;ratioP1;P1;durP2;ratioP2;P2;SDS_P1;SDS_P2;PMS_P1;PMS_P2;Temp;Humidity;BMP_temperature;BMP_pressure;BME280_temperature;BME280_humidity;BME280_pressure;Samples;Min_cycle;Max_cycle;Signal;HPM_P1;HPM_P2
2021/10/18 00:01:00;;;;;;;5.88;3.97;;;;;;;15.27;42.68;101843.66;4993913;28;20449;-70
2021/10/18 00:03:27;;;;;;;6.38;3.72;;;;;;;15.27;42.86;101848.25;4992132;28;20054;-70
2021/10/18 00:05:54;;;;;;;5.50;3.80;;;;;;;15.26;42.57;101844.66;4993026;28;20054;-70
2021/10/18 00:08:21;;;;;;;6.03;4.25;;;;;;;15.26;42.71;101852.84;4992571;28;20046;-70
2021/10/18 00:10:48;;;;;;;5.95;4.10;;;;;;;15.26;42.71;101862.91;4994928;28;20129;-69
2021/10/18 00:13:34;;;;;;;6.47;3.72;;;;;;;15.24;42.99;101860.28;4994286;28;20158;-70
2021/10/18 00:16:01;;;;;;;6.00;3.80;;;;;;;15.24;42.52;101860.28;4981801;28;20065;-70
2021/10/18 00:18:28;;;;;;;6.90;4.00;;;;;;;15.24;42.78;101855.69;4992298;28;20078;-70
2021/10/18 00:20:55;;;;;;;5.00;3.83;;;;;;;15.24;42.63;101849.34;4993533;28;20096;-70
2021/10/18 00:23:21;;;;;;;5.18;3.70;;;;;;;15.23;42.78;101853.09;4991414;28;20046;-70
2021/10/18 00:25:50;;;;;;;6.47;4.18;;;;;;;15.21;42.84;101849.56;4992841;28;20062;-70
2021/10/18 00:28:17;;;;;;;5.88;3.70;;;;;;;15.21;43.05;101849.56;4993007;28;20604;-69
2021/10/18 00:30:44;;;;;;;5.88;4.30;;;;;;;15.19;42.71;101849.69;4992379;28;20625;-69
2021/10/18 00:33:10;;;;;;;6.75;4.30;;;;;;;15.18;42.60;101847.91;4993268;28;20054;-70
2021/10/18 00:35:37;;;;;;;6.18;3.83;;;;;;;15.17;42.81;101851.63;4991699;28;20101;-70
2021/10/18 00:38:04;;;;;;;6.15;3.92;;;;;;;15.17;42.84;101854.38;4993154;28;20131;-70
2021/10/18 00:40:30;;;;;;;5.90;3.83;;;;;;;15.17;42.64;101858.97;4949814;28;20121;-69
2021/10/18 00:42:57;;;;;;;6.32;4.07;;;;;;;15.14;42.84;101854.59;4993301;28;20105;-70
2021/10/18 00:45:24;;;;;;;6.10;4.38;;;;;;;15.13;42.63;101857.44;4991879;28;20050;-70
2021/10/18 00:47:50;;;;;;;5.35;3.55;;;;;;;15.10;42.82;101842.13;4992756;28;20120;-69
2021/10/18 00:50:17;;;;;;;5.65;3.78;;;;;;;15.09;42.54;101844.94;4991747;28;20084;-70
2021/10/18 00:52:44;;;;;;;7.10;3.75;;;;;;;15.07;42.79;101841.47;4999468;28;20077;-70
2021/10/18 00:55:11;;;;;;;5.93;3.97;;;;;;;15.07;42.63;101846.94;4995243;28;20046;-70
2021/10/18 00:57:39;;;;;;;5.45;3.67;;;;;;;15.05;42.44;101855.25;4992109;28;20501;-70
2021/10/18 01:00:07;;;;;;;7.00;4.50;;;;;;;15.04;42.74;101845.28;4990929;28;20054;-70
2021/10/18 01:02:34;;;;;;;5.70;4.35;;;;;;;15.01;42.75;101850.09;4992654;28;20057;-70
2021/10/18 01:05:01;;;;;;;5.28;3.83;;;;;;;14.99;42.83;101852.91;4950917;28;20051;-70
2021/10/18 01:07:29;;;;;;;7.70;4.18;;;;;;;14.98;42.79;101862.13;4989789;28;20054;-70
2021/10/18 01:09:56;;;;;;;5.97;3.92;;;;;;;14.96;42.55;101853.16;4991412;28;20052;-70
2021/10/18 01:12:23;;;;;;;6.38;4.25;;;;;;;14.94;42.61;101852.38;4992217;28;20173;-70
2021/10/18 01:14:49;;;;;;;6.68;4.50;;;;;;;14.90;42.90;101852.69;4991588;28;20050;-70
2021/10/18 01:17:16;;;;;;;7.22;4.22;;;;;;;14.87;42.54;101866.56;4991465;28;20473;-70
2021/10/18 01:19:43;;;;;;;5.55;4.22;;;;;;;14.83;42.53;101864.03;4990682;28;20054;-70
2021/10/18 01:22:10;;;;;;;5.32;4.28;;;;;;;14.79;42.87;101848.84;4992147;28;20050;-70
2021/10/18 01:24:37;;;;;;;6.93;4.68;;;;;;;14.76;42.97;101853.63;4990292;28;20042;-70
2021/10/18 01:27:05;;;;;;;6.28;4.43;;;;;;;14.73;42.68;101856.59;4991570;28;20054;-70
2021/10/18 01:29:33;;;;;;;7.43;4.60;;;;;;;14.70;42.72;101860.41;4960146;28;20054;-70
2021/10/18 01:32:01;;;;;;;7.22;4.47;;;;;;;14.66;42.63;101861.56;4974841;28;20125;-70
2021/10/18 01:34:28;;;;;;;7.10;4.70;;;;;;;14.62;43.39;101872.84;4990919;28;20075;-70
2021/10/18 01:36:57;;;;;;;6.78;4.63;;;;;;;14.59;43.07;101878.50;4990884;28;20486;-70
2021/10/18 01:39:24;;;;;;;6.22;4.38;;;;;;;14.56;43.08;101873.25;4991195;28;20134;-70
2021/10/18 01:41:51;;;;;;;6.53;4.70;;;;;;;14.51;42.63;101869.94;4991196;28;20489;-70
2021/10/18 01:44:18;;;;;;;6.40;4.43;;;;;;;14.49;42.79;101875.53;4990549;28;20186;-70
2021/10/18 01:46:45;;;;;;;6.85;4.22;;;;;;;14.48;43.03;101872.91;4991027;28;20086;-70
2021/10/18 01:49:13;;;;;;;7.18;4.60;;;;;;;14.45;42.98;101872.13;4989841;28;20046;-70
2021/10/18 01:51:40;;;;;;;5.93;4.05;;;;;;;14.43;43.39;101879.53;4991354;28;20054;-69
2021/10/18 01:54:07;;;;;;;8.70;4.40;;;;;;;14.41;42.92;101870.56;4996455;28;20129;-70
2021/10/18 01:56:35;;;;;;;6.22;4.30;;;;;;;14.40;43.22;101878.88;4990889;28;20049;-70
2021/10/18 01:59:03;;;;;;;5.93;3.67;;;;;;;14.38;43.01;101878.06;4989018;28;20591;-69
2021/10/18 02:01:30;;;;;;;5.85;3.83;;;;;;;14.35;43.29;101878.25;4990796;28;20046;-70
2021/10/18 02:03:57;;;;;;;6.40;4.50;;;;;;;14.32;43.22;101873.88;4964071;28;20058;-70
2021/10/18 02:06:24;;;;;;;6.22;3.85;;;;;;;14.31;43.53;101868.53;4989204;28;20054;-70
2021/10/18 02:08:51;;;;;;;6.53;4.13;;;;;;;14.29;42.82;101874.09;4989265;28;20055;-69
2021/10/18 02:11:17;;;;;;;5.35;3.65;;;;;;;14.27;43.12;101875.16;4990880;28;20062;-70
2021/10/18 02:13:44;;;;;;;5.72;3.95;;;;;;;14.24;43.10;101870.78;4989519;28;20046;-70
2021/10/18 02:16:11;;;;;;;6.40;4.40;;;;;;;14.22;43.02;101864.53;4990079;28;20050;-70
2021/10/18 02:18:37;;;;;;;6.38;4.00;;;;;;;14.20;43.26;101863.75;4988826;28;20141;-70
2021/10/18 02:21:05;;;;;;;5.63;3.78;;;;;;;14.18;42.99;101862.97;4989802;28;20050;-70
2021/10/18 02:23:32;;;;;;;5.90;4.20;;;;;;;14.17;43.11;101868.53;4963757;28;20132;-70
2021/10/18 02:25:59;;;;;;;5.60;3.88;;;;;;;14.13;43.28;101865.16;4988282;28;20046;-70
2021/10/18 02:28:28;;;;;;;7.18;4.28;;;;;;;14.11;43.23;101861.63;4988560;28;20061;-70
2021/10/18 02:30:55;;;;;;;6.60;4.50;;;;;;;14.09;43.00;101864.44;4990324;28;20057;-70
2021/10/18 02:33:22;;;;;;;5.32;3.95;;;;;;;14.08;43.03;101867.31;4970716;28;20042;-70
2021/10/18 02:35:49;;;;;;;6.40;3.92;;;;;;;14.06;43.48;101859.22;4972948;28;20105;-70
2021/10/18 02:38:16;;;;;;;5.95;4.13;;;;;;;14.04;43.61;101869.34;4972379;28;20065;-69
2021/10/18 02:40:43;;;;;;;6.05;4.22;;;;;;;14.02;43.35;101865.84;4962795;28;20061;-70
2021/10/18 02:43:10;;;;;;;6.15;4.10;;;;;;;14.00;43.49;101858.75;4989726;28;20050;-69
2021/10/18 02:45:36;;;;;;;6.07;4.25;;;;;;;13.97;43.26;101862.53;4930371;28;20058;-70
2021/10/18 02:48:04;;;;;;;7.80;4.05;;;;;;;13.95;43.32;101861.75;4989625;28;20567;-69
2021/10/18 02:50:30;;;;;;;5.97;4.25;;;;;;;13.93;43.47;101854.63;4989321;28;20112;-69
2021/10/18 02:52:57;;;;;;;6.10;4.45;;;;;;;13.92;43.61;101855.59;4996942;28;20053;-70
2021/10/18 02:55:24;;;;;;;6.35;4.15;;;;;;;13.91;43.61;101859.34;4987711;28;20122;-70
2021/10/18 02:57:51;;;;;;;5.80;4.10;;;;;;;13.88;43.43;101854.94;4989480;28;20548;-70
2021/10/18 03:00:17;;;;;;;5.95;4.45;;;;;;;13.87;43.61;101853.19;4988603;28;20310;-70
2021/10/18 03:02:44;;;;;;;6.80;4.30;;;;;;;13.85;43.42;101840.59;4990525;28;20476;-69
2021/10/18 03:05:11;;;;;;;6.70;4.45;;;;;;;13.83;43.65;101848.03;4989009;28;20054;-69
2021/10/18 03:07:38;;;;;;;6.13;4.38;;;;;;;13.81;43.54;101849.97;4989628;28;20056;-69
2021/10/18 03:10:06;;;;;;;5.82;4.00;;;;;;;13.79;43.62;101849.19;4989239;28;20053;-69
2021/10/18 03:12:34;;;;;;;6.10;4.07;;;;;;;13.76;43.34;101863.03;4990953;28;20058;-70
2021/10/18 03:15:03;;;;;;;6.40;4.15;;;;;;;13.73;43.72;101855.94;4989093;28;20589;-70
2021/10/18 03:17:29;;;;;;;5.90;3.95;;;;;;;13.70;43.66;101857.00;4989854;28;20058;-69
2021/10/18 03:19:56;;;;;;;5.68;4.07;;;;;;;13.67;43.54;101853.63;4989558;28;20077;-70
2021/10/18 03:22:22;;;;;;;6.45;4.15;;;;;;;13.66;43.67;101852.72;4990699;28;20082;-69
2021/10/18 03:24:49;;;;;;;5.80;4.30;;;;;;;13.63;43.85;101861.09;4989661;28;20046;-70
2021/10/18 03:27:16;;;;;;;6.13;4.10;;;;;;;13.63;43.62;101849.31;4989488;28;20054;-70
2021/10/18 03:29:43;;;;;;;6.15;4.30;;;;;;;13.60;44.03;101853.09;4975029;28;20078;-70
2021/10/18 03:32:10;;;;;;;7.00;4.80;;;;;;;13.59;43.80;101856.78;4990951;28;20054;-69
2021/10/18 03:34:36;;;;;;;5.32;3.92;;;;;;;13.58;43.82;101855.06;4992137;28;20477;-70
2021/10/18 03:37:03;;;;;;;6.35;4.03;;;;;;;13.56;43.82;101850.69;4993655;28;20050;-69
2021/10/18 03:39:30;;;;;;;6.97;4.18;;;;;;;13.54;43.75;101849.88;4992917;28;20101;-69
2021/10/18 03:42:15;;;;;;;6.22;4.20;;;;;;;13.53;44.11;101848.13;4994187;28;20090;-69
2021/10/18 03:44:45;;;;;;;5.93;4.10;;;;;;;13.52;44.33;101855.44;4993184;28;20506;-70
2021/10/18 03:47:12;;;;;;;5.78;3.78;;;;;;;13.49;43.93;101857.50;4993114;28;20062;-69
2021/10/18 03:49:39;;;;;;;5.57;4.20;;;;;;;13.48;43.98;101862.06;4992650;28;20054;-69
2021/10/18 03:52:06;;;;;;;6.65;3.97;;;;;;;13.46;43.97;101863.13;4995282;28;20483;-69
2021/10/18 03:54:33;;;;;;;5.60;3.50;;;;;;;13.46;44.04;101863.13;4970936;28;20508;-70
2021/10/18 03:57:00;;;;;;;5.88;4.05;;;;;;;13.45;43.65;101864.97;4991470;28;20472;-70
2021/10/18 03:59:26;;;;;;;5.60;4.03;;;;;;;13.43;44.24;101863.31;5001255;28;20042;-69
2021/10/18 04:01:53;;;;;;;5.78;3.80;;;;;;;13.43;43.92;101866.03;4976325;28;20123;-70
2021/10/18 04:04:21;;;;;;;6.10;4.10;;;;;;;13.43;44.10;101866.94;4989060;28;20054;-69
2021/10/18 04:06:48;;;;;;;7.15;4.10;;;;;;;13.39;43.88;101859.91;4990209;28;20109;-70
2021/10/18 04:09:15;;;;;;;5.72;3.80;;;;;;;13.39;43.92;101867.22;4992620;28;20046;-70
2021/10/18 04:11:41;;;;;;;5.78;4.15;;;;;;;13.38;44.01;101862.75;4994056;28;20050;-69
2021/10/18 04:14:08;;;;;;;5.90;3.85;;;;;;;13.37;44.00;101866.44;4992640;28;20161;-70
2021/10/18 04:16:35;;;;;;;6.57;4.07;;;;;;;13.34;44.41;101867.53;4993080;28;20046;-70
2021/10/18 04:19:03;;;;;;;6.53;4.07;;;;;;;13.32;44.04;101878.53;4991909;28;20046;-70
2021/10/18 04:21:29;;;;;;;5.85;3.90;;;;;;;13.29;44.34;101875.97;4976717;28;20104;-70
2021/10/18 04:23:56;;;;;;;5.93;4.10;;;;;;;13.27;44.06;101880.66;4967352;28;20179;-69
2021/10/18 04:26:23;;;;;;;6.93;4.22;;;;;;;13.25;44.34;101890.78;4992029;28;20108;-70
2021/10/18 04:28:49;;;;;;;6.80;4.30;;;;;;;13.23;43.96;101881.81;4992331;28;20058;-69
2021/10/18 04:31:32;;;;;;;5.90;3.95;;;;;;;13.21;44.54;101883.75;4993479;28;20085;-70
2021/10/18 04:34:05;;;;;;;6.43;4.30;;;;;;;13.17;44.94;101884.94;4983363;28;20073;-69
2021/10/18 04:36:32;;;;;;;;;;;;;;;12.89;44.99;101874.78;4985449;28;20146;-69
2021/10/18 04:38:59;;;;;;;5.68;4.10;;;;;;;13.07;44.50;101880.09;4959762;28;19933;-69
2021/10/18 04:41:25;;;;;;;5.70;3.90;;;;;;;13.09;44.40;101886.34;4981927;28;20054;-70
2021/10/18 04:43:52;;;;;;;6.93;4.35;;;;;;;13.06;44.42;101889.25;4966570;28;20050;-69
2021/10/18 04:46:19;;;;;;;6.82;4.35;;;;;;;13.03;44.62;101886.69;4992635;28;20054;-70
2021/10/18 04:48:46;;;;;;;5.43;3.88;;;;;;;13.00;44.57;101886.91;4994617;28;20048;-69
2021/10/18 04:51:13;;;;;;;5.25;3.78;;;;;;;12.96;44.47;101880.72;4992799;28;20042;-69
2021/10/18 04:53:40;;;;;;;5.85;4.05;;;;;;;12.94;44.79;101882.66;4966888;28;20065;-70
2021/10/18 04:56:06;;;;;;;5.35;3.95;;;;;;;12.93;44.85;101889.09;4990219;28;20105;-70
2021/10/18 04:58:33;;;;;;;7.07;4.20;;;;;;;12.90;44.55;101887.44;4989989;28;20694;-70
2021/10/18 05:01:00;;;;;;;6.22;3.80;;;;;;;12.89;44.83;101885.69;4992355;28;20038;-70
2021/10/18 05:03:27;;;;;;;7.93;3.97;;;;;;;12.88;44.85;101893.94;4964407;28;20057;-70
2021/10/18 05:05:55;;;;;;;6.18;4.15;;;;;;;12.87;44.50;101893.06;4975708;28;20042;-70
2021/10/18 05:08:29;;;;;;;6.60;3.97;;;;;;;12.85;45.06;101886.81;4990957;28;20055;-70
2021/10/18 05:10:56;;;;;;;6.80;3.92;;;;;;;12.84;44.53;101886.94;4991730;28;20054;-69
2021/10/18 05:13:24;;;;;;;6.07;4.05;;;;;;;12.84;45.00;101892.38;4991225;28;20061;-70
2021/10/18 05:15:54;;;;;;;8.00;4.45;;;;;;;12.82;44.88;101895.19;4991758;28;20097;-69
2021/10/18 05:18:22;;;;;;;6.68;4.38;;;;;;;12.83;44.91;101893.34;4991018;28;20662;-70
2021/10/18 05:20:50;;;;;;;5.88;4.10;;;;;;;12.82;44.88;101891.59;4974809;28;20054;-70
2021/10/18 05:23:17;;;;;;;6.72;4.20;;;;;;;12.81;44.96;101892.56;4992425;28;20069;-70
2021/10/18 05:25:44;;;;;;;6.63;4.07;;;;;;;12.80;44.97;101891.69;4989791;28;20042;-70
2021/10/18 05:28:11;;;;;;;6.03;4.35;;;;;;;12.80;45.27;101894.41;4992100;28;20054;-69
2021/10/18 05:30:38;;;;;;;10.15;4.68;;;;;;;12.78;44.94;101899.06;4964063;28;20109;-70
2021/10/18 05:33:05;;;;;;;7.18;4.00;;;;;;;12.79;45.22;101899.94;4975211;28;20363;-70
2021/10/18 05:35:32;;;;;;;6.43;4.45;;;;;;;12.78;44.92;101900.91;4991251;28;20050;-70
2021/10/18 05:37:59;;;;;;;6.35;4.30;;;;;;;12.77;45.01;101904.59;4991792;28;20509;-70
2021/10/18 05:40:26;;;;;;;7.88;4.28;;;;;;;12.76;45.31;101913.78;4947954;28;20178;-70
2021/10/18 05:42:56;;;;;;;6.35;4.50;;;;;;;12.77;45.43;101913.66;4993872;28;20050;-69
2021/10/18 05:45:23;;;;;;;6.60;4.43;;;;;;;12.73;45.45;101909.38;4993755;28;20057;-69
2021/10/18 05:47:53;;;;;;;7.68;4.60;;;;;;;12.76;45.27;101911.06;4991208;28;20069;-70
2021/10/18 05:50:21;;;;;;;5.90;4.15;;;;;;;12.74;45.16;101915.69;4948275;28;20042;-70
2021/10/18 05:52:48;;;;;;;6.97;4.65;;;;;;;12.72;45.18;101904.00;4995160;28;20046;-70
2021/10/18 05:55:15;;;;;;;7.25;4.40;;;;;;;12.71;45.09;101914.03;4990071;28;20093;-70
2021/10/18 05:58:04;;;;;;;6.65;4.50;;;;;;;12.69;45.71;101899.59;4989993;28;20150;-69
2021/10/18 06:00:40;;;;;;;6.00;4.20;;;;;;;12.67;45.71;101912.47;4982706;28;20042;-70
2021/10/18 06:03:08;;;;;;;7.63;4.68;;;;;;;12.63;45.30;101912.72;4991878;28;20200;-70
2021/10/18 06:05:43;;;;;;;6.90;4.68;;;;;;;12.63;45.65;101908.16;4990228;28;20043;-70
2021/10/18 06:08:12;;;;;;;5.38;3.97;;;;;;;12.60;45.33;101900.16;4994790;28;20054;-70
2021/10/18 06:10:40;;;;;;;7.13;4.22;;;;;;;12.60;45.19;101904.75;4948756;28;20043;-70
2021/10/18 06:13:07;;;;;;;6.18;4.45;;;;;;;12.58;45.19;101900.25;4991392;28;20133;-70
2021/10/18 06:15:34;;;;;;;5.85;4.15;;;;;;;12.58;45.55;101900.25;4990557;28;20078;-69
2021/10/18 06:18:11;;;;;;;6.53;4.40;;;;;;;12.63;45.81;101907.28;4995150;28;20042;-69
2021/10/18 06:20:43;;;;;;;7.13;4.30;;;;;;;12.60;45.44;101910.19;4986375;28;20053;-70
2021/10/18 06:23:12;;;;;;;7.32;4.70;;;;;;;12.59;45.39;101901.13;4989564;28;20050;-70
2021/10/18 06:25:40;;;;;;;7.70;4.63;;;;;;;12.58;45.46;101905.72;4988274;28;20136;-69
2021/10/18 06:28:10;;;;;;;6.43;4.55;;;;;;;12.57;45.69;101898.50;4990611;28;20050;-70
2021/10/18 06:30:37;;;;;;;7.43;5.05;;;;;;;12.57;45.38;101901.22;4947050;28;20441;-70
2021/10/18 06:33:04;;;;;;;7.25;4.70;;;;;;;12.57;45.71;101903.94;4990057;28;20061;-70
2021/10/18 06:35:35;;;;;;;7.35;4.38;;;;;;;12.61;45.88;101903.75;4961807;28;20058;-70
2021/10/18 06:38:10;;;;;;;6.00;4.32;;;;;;;12.64;46.21;101900.84;4994993;28;20636;-70
2021/10/18 06:40:39;;;;;;;6.43;4.60;;;;;;;12.62;45.72;101906.38;4988840;28;20065;-69
2021/10/18 06:43:06;;;;;;;6.57;4.43;;;;;;;12.69;46.03;101909.63;4988950;28;20410;-69
2021/10/18 06:45:34;;;;;;;7.47;4.60;;;;;;;12.73;46.13;101908.50;4992449;28;20042;-69
2021/10/18 06:48:05;;;;;;;7.22;4.85;;;;;;;12.75;46.26;101915.63;5001482;28;20045;-69
2021/10/18 06:50:33;;;;;;;7.40;4.45;;;;;;;12.80;46.16;101916.22;4969745;28;20057;-69
2021/10/18 06:53:00;;;;;;;7.38;4.57;;;;;;;12.84;46.04;101923.25;4982754;28;20078;-69
2021/10/18 06:55:27;;;;;;;6.85;4.28;;;;;;;12.88;46.27;101927.53;4996488;28;20058;-70
2021/10/18 06:57:57;;;;;;;6.72;4.68;;;;;;;12.92;46.09;101928.25;4989189;28;20046;-70
2021/10/18 07:00:24;;;;;;;7.97;4.82;;;;;;;12.94;46.02;101927.16;4962807;28;20042;-69
2021/10/18 07:02:51;;;;;;;6.95;4.95;;;;;;;13.00;45.98;101927.78;4985172;28;20136;-69
2021/10/18 07:05:18;;;;;;;7.10;5.10;;;;;;;13.02;46.17;101929.44;4987135;28;20050;-69
2021/10/18 07:07:45;;;;;;;7.55;4.80;;;;;;;13.05;46.21;101934.72;4985444;28;20046;-69
2021/10/18 07:10:12;;;;;;;9.07;5.30;;;;;;;13.09;46.07;101933.56;4961871;28;20303;-69
2021/10/18 07:12:42;;;;;;;7.43;5.55;;;;;;;13.14;46.48;101934.19;4988685;28;20050;-69
2021/10/18 07:15:10;;;;;;;7.68;4.97;;;;;;;13.15;46.16;101929.63;4986264;28;20516;-69
2021/10/18 07:17:37;;;;;;;7.60;5.18;;;;;;;13.16;46.31;101932.25;4993844;28;20502;-70
2021/10/18 07:20:06;;;;;;;8.13;4.70;;;;;;;13.21;46.21;101932.84;4988385;28;20452;-70
2021/10/18 07:22:42;;;;;;;7.63;4.95;;;;;;;13.22;46.15;101939.19;4988861;28;20051;-70
2021/10/18 07:25:11;;;;;;;7.20;5.05;;;;;;;13.26;46.14;101932.56;4969112;28;20043;-69
2021/10/18 07:27:38;;;;;;;9.13;4.88;;;;;;;13.28;46.02;101925.16;4971226;28;20078;-69
2021/10/18 07:30:06;;;;;;;7.40;5.10;;;;;;;13.32;46.07;101922.16;4999951;28;20037;-69
2021/10/18 07:32:34;;;;;;;8.75;4.80;;;;;;;13.32;46.20;101919.44;4983852;28;20088;-69
2021/10/18 07:35:00;;;;;;;7.70;4.90;;;;;;;13.37;46.18;101921.00;4984115;28;20050;-69
2021/10/18 07:37:29;;;;;;;9.88;5.57;;;;;;;13.40;46.36;101926.28;4986365;28;20438;-69
2021/10/18 07:39:57;;;;;;;6.95;4.50;;;;;;;13.42;46.75;101925.22;4985347;28;20050;-73
2021/10/18 07:42:24;;;;;;;7.65;4.85;;;;;;;13.46;46.86;101918.59;4988930;28;20251;-72
2021/10/18 07:44:53;;;;;;;11.07;5.30;;;;;;;13.51;47.19;101923.75;4987090;28;20407;-72
2021/10/18 07:47:21;;;;;;;7.57;4.93;;;;;;;13.58;47.54;101928.75;4988053;28;20474;-72
2021/10/18 07:49:48;;;;;;;8.27;4.78;;;;;;;13.65;47.39;101929.22;4993114;28;20050;-69
2021/10/18 07:52:16;;;;;;;8.80;4.95;;;;;;;13.72;47.34;101933.31;4987542;28;20430;-69
2021/10/18 07:54:44;;;;;;;10.20;6.03;;;;;;;13.80;46.92;101933.72;4982484;28;20059;-70
2021/10/18 07:57:11;;;;;;;7.40;5.20;;;;;;;13.86;47.16;101936.06;4983942;28;20126;-69
2021/10/18 07:59:38;;;;;;;9.50;5.72;;;;;;;13.93;47.11;101942.00;4985937;28;20437;-70
2021/10/18 08:02:05;;;;;;;7.57;5.07;;;;;;;13.98;47.02;101946.22;4986755;28;20046;-69
2021/10/18 08:04:32;;;;;;;8.65;5.63;;;;;;;14.06;46.80;101948.44;4983619;28;20042;-69
2021/10/18 08:07:01;;;;;;;8.93;5.97;;;;;;;14.09;46.82;101946.38;4987074;28;20058;-69
2021/10/18 08:09:28;;;;;;;8.05;5.65;;;;;;;14.14;46.77;101940.66;4964530;28;20046;-70
2021/10/18 08:11:55;;;;;;;8.75;6.05;;;;;;;14.20;46.75;101947.56;4988124;28;20827;-70
2021/10/18 08:14:22;;;;;;;9.20;5.68;;;;;;;14.24;46.79;101951.84;4986644;28;20654;-69
2021/10/18 08:16:49;;;;;;;9.35;6.00;;;;;;;14.27;46.64;101947.06;4991905;28;20046;-69
2021/10/18 08:19:15;;;;;;;9.77;6.25;;;;;;;14.32;46.62;101952.22;4984483;28;20481;-69
2021/10/18 08:21:42;;;;;;;8.88;6.05;;;;;;;14.36;46.63;101945.56;4992295;28;20093;-69
2021/10/18 08:24:09;;;;;;;9.27;5.80;;;;;;;14.40;46.59;101952.66;4990022;28;20053;-69
2021/10/18 08:26:36;;;;;;;9.95;5.97;;;;;;;14.43;46.71;101949.69;4991615;28;20129;-69
2021/10/18 08:29:03;;;;;;;9.75;5.85;;;;;;;14.46;46.59;101954.97;4989762;28;20050;-69
2021/10/18 08:31:30;;;;;;;10.07;5.97;;;;;;;14.51;46.89;101952.81;4991476;28;20105;-69
2021/10/18 08:33:57;;;;;;;8.93;5.78;;;;;;;14.56;46.58;101955.25;4990682;28;20077;-69
2021/10/18 08:36:23;;;;;;;10.40;6.60;;;;;;;14.59;47.00;101950.44;4991324;28;20074;-70
2021/10/18 08:38:52;;;;;;;10.05;6.57;;;;;;;14.64;47.05;101956.50;4948991;28;20058;-69
2021/10/18 08:46:26;;;;;;;11.00;6.22;;;;;;;14.79;46.93;101944.53;4990515;28;20113;-71
2021/10/18 08:48:55;;;;;;;13.25;6.43;;;;;;;14.83;46.95;101940.59;4970952;28;20066;-71
2021/10/18 08:51:22;;;;;;;9.80;6.45;;;;;;;14.88;46.60;101936.69;4991992;28;20050;-70
2021/10/18 08:53:48;;;;;;;9.80;6.95;;;;;;;14.93;46.70;101945.44;4989148;28;20069;-70
2021/10/18 08:56:15;;;;;;;11.40;6.45;;;;;;;14.97;46.61;101945.16;4989814;28;20291;-70
2021/10/18 08:58:42;;;;;;;10.55;6.88;;;;;;;15.02;47.06;101936.63;4990086;28;20046;-70
2021/10/18 09:01:09;;;;;;;11.07;7.00;;;;;;;15.07;46.88;101932.56;4988679;28;20078;-70
2021/10/18 09:03:36;;;;;;;10.73;6.90;;;;;;;15.11;46.49;101938.72;4990927;28;20433;-70
2021/10/18 09:06:22;;;;;;;11.32;6.93;;;;;;;15.17;46.70;101939.19;4989697;28;20610;-70
2021/10/18 09:08:52;;;;;;;12.48;7.32;;;;;;;15.22;46.90;101930.66;4984958;28;20077;-70
2021/10/18 09:11:27;;;;;;;11.63;7.15;;;;;;;15.29;46.64;101942.06;4973750;28;20498;-70
2021/10/18 09:13:53;;;;;;;12.38;7.55;;;;;;;15.31;46.69;101931.91;4973378;28;20109;-70
2021/10/18 09:16:26;;;;;;;10.75;6.70;;;;;;;15.38;46.55;101925.88;4990376;28;20494;-70
2021/10/18 09:19:00;;;;;;;;;;;;;;;15.16;47.18;101928.34;4991188;28;20050;-70
2021/10/18 09:21:31;;;;;;;10.40;6.68;;;;;;;15.44;46.87;101924.56;4989227;28;19929;-70
2021/10/18 09:24:00;;;;;;;11.07;7.03;;;;;;;15.49;46.65;101925.97;4987690;28;20057;-71
2021/10/18 09:26:28;;;;;;;11.15;7.07;;;;;;;15.56;46.66;101929.22;4987820;28;20082;-71
2021/10/18 09:28:55;;;;;;;12.43;7.53;;;;;;;15.60;46.29;101942.56;4987348;28;20563;-70
2021/10/18 09:31:24;;;;;;;11.23;7.57;;;;;;;15.67;46.37;101944.88;4992357;28;20407;-71
2021/10/18 09:33:57;;;;;;;10.35;7.32;;;;;;;15.70;46.57;101936.44;4979875;28;20479;-71
2021/10/18 09:36:29;;;;;;;11.55;7.22;;;;;;;15.78;46.51;101939.50;4991205;28;20074;-71
2021/10/18 09:39:21;;;;;;;10.60;6.80;;;;;;;15.80;46.58;101941.16;4989283;28;20067;-71
2021/10/18 09:41:57;;;;;;;11.30;6.57;;;;;;;15.88;46.69;101951.56;4986209;28;20383;-71
2021/10/18 09:44:41;;;;;;;11.32;6.97;;;;;;;15.92;46.47;101956.69;4989252;28;20107;-71
2021/10/18 10:52:42;;;;;;;7.72;5.25;;;;;;;18.03;43.97;101912.16;4989214;28;20053;-70
2021/10/18 10:55:32;;;;;;;7.80;5.32;;;;;;;18.06;44.04;101905.50;4979038;28;20065;-70
2021/10/18 10:58:01;;;;;;;8.63;5.63;;;;;;;18.12;43.82;101902.25;4987834;28;20497;-70
2021/10/18 11:00:40;;;;;;;8.00;5.47;;;;;;;18.19;43.59;101900.78;4985559;28;20567;-70
2021/10/18 11:03:35;;;;;;;7.38;5.43;;;;;;;18.23;43.84;101918.75;4987914;28;20066;-70
2021/10/18 11:06:05;;;;;;;8.55;5.30;;;;;;;18.27;44.08;101916.63;4988804;28;20383;-70
2021/10/18 11:08:35;;;;;;;6.88;4.30;;;;;;;18.32;44.05;101907.00;4986751;28;20043;-70
2021/10/18 11:11:10;;;;;;;7.60;5.20;;;;;;;18.40;43.95;101900.88;4969542;28;20088;-71
2021/10/18 11:13:56;;;;;;;8.05;4.95;;;;;;;18.45;43.78;101893.97;4978443;28;20081;-70
2021/10/18 11:16:26;;;;;;;8.10;5.53;;;;;;;18.49;43.73;101873.47;4969793;28;20050;-70
2021/10/18 11:18:58;;;;;;;7.13;5.18;;;;;;;18.57;43.97;101872.84;4960819;28;20497;-70
2021/10/18 11:21:35;;;;;;;8.20;5.00;;;;;;;18.61;43.36;101874.38;4988069;28;20092;-70
2021/10/18 11:24:09;;;;;;;7.53;4.97;;;;;;;18.68;43.01;101867.34;4988087;28;20046;-70
2021/10/18 11:26:39;;;;;;;6.25;4.45;;;;;;;18.71;43.71;101856.03;4980880;28;20054;-70
2021/10/18 11:29:09;;;;;;;9.45;4.72;;;;;;;18.77;43.75;101861.06;4989441;28;20145;-70
2021/10/18 11:31:44;;;;;;;7.05;4.68;;;;;;;18.82;43.57;101863.41;4994193;28;20388;-69
2021/10/18 11:34:19;;;;;;;7.22;4.18;;;;;;;18.89;42.60;101868.25;4985979;28;20374;-69
2021/10/18 11:36:50;;;;;;;6.43;4.25;;;;;;;18.94;42.81;101874.22;4985441;28;20461;-69
2021/10/18 11:39:24;;;;;;;6.78;4.43;;;;;;;19.01;42.41;101869.06;4989277;28;20512;-69
2021/10/18 11:42:05;;;;;;;6.93;4.38;;;;;;;19.06;41.86;101860.41;4993715;28;20133;-69
2021/10/18 11:44:47;;;;;;;5.95;4.25;;;;;;;19.10;42.23;101861.91;4989536;28;20457;-69
2021/10/18 11:47:33;;;;;;;6.70;4.45;;;;;;;19.16;42.02;101862.25;4990705;28;20054;-70
2021/10/18 11:50:18;;;;;;;6.70;4.75;;;;;;;19.20;42.48;101863.69;4996883;28;20050;-70
2021/10/18 11:52:46;;;;;;;7.15;4.60;;;;;;;19.26;42.13;101871.44;4984996;28;20053;-70
2021/10/18 11:55:24;;;;;;;6.07;4.25;;;;;;;19.34;42.44;101862.50;4991876;28;20093;-70
2021/10/18 11:57:53;;;;;;;6.97;3.92;;;;;;;19.38;42.68;101864.84;4994528;28;20109;-70
2021/10/18 12:00:41;;;;;;;5.88;4.13;;;;;;;19.48;41.04;101866.81;4989021;28;20137;-69
2021/10/18 12:03:13;;;;;;;6.25;4.45;;;;;;;19.56;41.64;101869.78;4992190;28;20050;-70
2021/10/18 12:05:50;;;;;;;;;;;;;;;19.33;42.96;101858.00;4971875;28;20034;-70
2021/10/18 12:08:19;;;;;;;7.45;4.10;;;;;;;19.66;41.96;101840.41;4993967;28;20416;-70
2021/10/18 12:10:50;;;;;;;5.97;3.80;;;;;;;19.75;41.95;101834.94;4993288;28;20073;-70
2021/10/18 12:13:21;;;;;;;7.05;4.15;;;;;;;19.86;41.50;101833.09;4993559;28;20054;-70
2021/10/18 12:15:50;;;;;;;6.20;4.25;;;;;;;19.88;41.90;101814.53;4991634;28;20130;-70
2021/10/18 12:18:20;;;;;;;7.25;4.38;;;;;;;19.95;41.47;101816.59;4995081;28;20050;-70
2021/10/18 12:20:51;;;;;;;6.20;3.80;;;;;;;20.01;41.68;101816.00;4974192;28;20077;-70
2021/10/18 12:23:36;;;;;;;6.40;4.13;;;;;;;20.07;41.10;101804.44;4986578;28;20077;-70
2021/10/18 12:26:14;;;;;;;6.38;4.53;;;;;;;20.13;41.08;101792.84;4989039;28;20062;-70
2021/10/18 12:28:48;;;;;;;7.22;4.88;;;;;;;20.17;41.42;101792.59;4990640;28;20050;-70
2021/10/18 12:31:24;;;;;;;7.28;4.15;;;;;;;20.23;40.93;101792.00;4993967;28;20374;-71
2021/10/18 12:34:01;;;;;;;6.70;4.63;;;;;;;20.27;40.92;101793.44;4987756;28;20101;-70
2021/10/18 12:36:28;;;;;;;6.50;4.18;;;;;;;20.29;41.70;101777.63;4993443;28;20109;-69
2021/10/18 12:38:56;;;;;;;6.97;4.40;;;;;;;20.35;41.52;101766.94;4983734;28;20126;-69
2021/10/18 12:41:23;;;;;;;5.63;4.18;;;;;;;20.42;41.30;101762.56;4970312;28;20100;-69
2021/10/18 12:43:50;;;;;;;7.18;5.03;;;;;;;20.48;40.90;101753.75;4980590;28;20157;-68